sensor_id;sensor_type;location;lat;lon;timestamp;P1;durP1;ratioP1;P2;durP2;ratioP2
25553;SDS011;13446;50.926;5.332;2022-08-04T00:01:03;9.75;;;2.10;;
25553;SDS011;13446;50.926;5.332;2022-08-04T00:03:42;7.47;;;2.13;;
25553;SDS011;13446;50.926;5.332;2022-08-04T00:09:29;4.45;;;1.90;;
25553;SDS011;13446;50.926;5.332;2022-08-04T00:12:09;6.93;;;1.90;;
25553;SDS011;13446;50.926;5.332;2022-08-04T00:14:45;7.85;;;1.90;;
25553;SDS011;13446;50.926;5.332;2022-08-04T00:17:15;10.23;;;2.25;;
25553;SDS011;13446;50.926;5.332;2022-08-04T00:19:46;5.35;;;1.83;;
25553;SDS011;13446;50.926;5.332;2022-08-04T00:22:13;6.10;;;1.63;;
25553;SDS011;13446;50.926;5.332;2022-08-04T00:24:43;5.80;;;1.90;;
25553;SDS011;13446;50.926;5.332;2022-08-04T00:27:12;10.82;;;2.05;;
25553;SDS011;13446;50.926;5.332;2022-08-04T00:29:38;9.20;;;2.10;;
25553;SDS011;13446;50.926;5.332;2022-08-04T00:32:05;5.90;;;1.85;;
25553;SDS011;13446;50.926;5.332;2022-08-04T00:34:32;5.47;;;2.20;;
25553;SDS011;13446;50.926;5.332;2022-08-04T00:37:00;5.53;;;1.75;;
25553;SDS011;13446;50.926;5.332;2022-08-04T00:39:26;3.78;;;1.73;;
25553;SDS011;13446;50.926;5.332;2022-08-04T00:44:36;10.95;;;2.00;;
25553;SDS011;13446;50.926;5.332;2022-08-04T00:50:07;5.03;;;1.70;;
25553;SDS011;13446;50.926;5.332;2022-08-04T00:52:38;5.88;;;1.95;;
25553;SDS011;13446;50.926;5.332;2022-08-04T01:00:57;7.85;;;1.98;;
25553;SDS011;13446;50.926;5.332;2022-08-04T01:03:49;2.95;;;1.55;;
25553;SDS011;13446;50.926;5.332;2022-08-04T01:12:35;9.68;;;2.10;;
25553;SDS011;13446;50.926;5.332;2022-08-04T01:17:45;5.75;;;2.00;;
25553;SDS011;13446;50.926;5.332;2022-08-04T01:20:30;10.55;;;2.15;;
25553;SDS011;13446;50.926;5.332;2022-08-04T01:34:19;9.55;;;2.40;;
25553;SDS011;13446;50.926;5.332;2022-08-04T01:36:50;6.65;;;2.10;;
25553;SDS011;13446;50.926;5.332;2022-08-04T01:39:46;3.95;;;2.00;;
25553;SDS011;13446;50.926;5.332;2022-08-04T01:42:16;9.20;;;2.00;;
25553;SDS011;13446;50.926;5.332;2022-08-04T01:47:11;11.15;;;2.38;;
25553;SDS011;13446;50.926;5.332;2022-08-04T01:49:41;6.70;;;2.58;;
25553;SDS011;13446;50.926;5.332;2022-08-04T01:54:40;6.57;;;1.88;;
25553;SDS011;13446;50.926;5.332;2022-08-04T01:57:07;8.45;;;2.20;;
25553;SDS011;13446;50.926;5.332;2022-08-04T01:59:34;9.60;;;2.20;;
25553;SDS011;13446;50.926;5.332;2022-08-04T02:02:03;6.80;;;2.47;;
25553;SDS011;13446;50.926;5.332;2022-08-04T02:04:30;6.18;;;2.45;;
25553;SDS011;13446;50.926;5.332;2022-08-04T02:07:16;11.90;;;2.50;;
25553;SDS011;13446;50.926;5.332;2022-08-04T02:15:26;6.47;;;1.70;;
25553;SDS011;13446;50.926;5.332;2022-08-04T02:20:45;18.95;;;2.33;;
25553;SDS011;13446;50.926;5.332;2022-08-04T02:23:13;9.10;;;2.20;;
25553;SDS011;13446;50.926;5.332;2022-08-04T02:25:47;7.22;;;2.33;;
25553;SDS011;13446;50.926;5.332;2022-08-04T02:31:19;6.20;;;1.95;;
25553;SDS011;13446;50.926;5.332;2022-08-04T02:36:41;9.18;;;1.92;;
25553;SDS011;13446;50.926;5.332;2022-08-04T02:39:10;6.00;;;2.05;;
25553;SDS011;13446;50.926;5.332;2022-08-04T02:41:38;7.97;;;1.90;;
25553;SDS011;13446;50.926;5.332;2022-08-04T02:44:05;9.40;;;1.95;;
25553;SDS011;13446;50.926;5.332;2022-08-04T02:46:33;9.77;;;2.28;;
25553;SDS011;13446;50.926;5.332;2022-08-04T02:49:06;7.28;;;2.30;;
25553;SDS011;13446;50.926;5.332;2022-08-04T02:51:34;5.68;;;2.25;;
25553;SDS011;13446;50.926;5.332;2022-08-04T02:54:03;8.50;;;2.38;;
25553;SDS011;13446;50.926;5.332;2022-08-04T02:56:31;7.07;;;2.13;;
25553;SDS011;13446;50.926;5.332;2022-08-04T02:58:59;11.38;;;2.40;;
25553;SDS011;13446;50.926;5.332;2022-08-04T03:01:26;6.22;;;2.13;;
25553;SDS011;13446;50.926;5.332;2022-08-04T03:04:13;8.80;;;2.88;;
25553;SDS011;13446;50.926;5.332;2022-08-04T03:15:55;5.10;;;2.08;;
25553;SDS011;13446;50.926;5.332;2022-08-04T03:21:56;8.55;;;2.90;;
25553;SDS011;13446;50.926;5.332;2022-08-04T03:24:49;16.88;;;2.95;;
25553;SDS011;13446;50.926;5.332;2022-08-04T03:30:24;15.50;;;2.70;;
25553;SDS011;13446;50.926;5.332;2022-08-04T03:38:44;12.27;;;2.90;;
25553;SDS011;13446;50.926;5.332;2022-08-04T03:46:55;7.50;;;2.55;;
25553;SDS011;13446;50.926;5.332;2022-08-04T03:55:45;10.98;;;2.67;;
25553;SDS011;13446;50.926;5.332;2022-08-04T04:10:02;11.27;;;2.80;;
25553;SDS011;13446;50.926;5.332;2022-08-04T04:13:02;13.75;;;2.75;;
25553;SDS011;13446;50.926;5.332;2022-08-04T04:21:42;10.95;;;2.72;;
25553;SDS011;13446;50.926;5.332;2022-08-04T04:46:31;5.82;;;2.25;;
25553;SDS011;13446;50.926;5.332;2022-08-04T04:49:24;16.65;;;3.03;;
25553;SDS011;13446;50.926;5.332;2022-08-04T04:51:59;9.55;;;2.38;;
25553;SDS011;13446;50.926;5.332;2022-08-04T04:57:04;13.85;;;2.55;;
25553;SDS011;13446;50.926;5.332;2022-08-04T04:59:43;6.43;;;2.35;;
25553;SDS011;13446;50.926;5.332;2022-08-04T05:11:03;9.90;;;2.45;;
25553;SDS011;13446;50.926;5.332;2022-08-04T05:21:47;12.60;;;2.35;;
25553;SDS011;13446;50.926;5.332;2022-08-04T05:24:17;6.05;;;2.10;;
25553;SDS011;13446;50.926;5.332;2022-08-04T05:26:49;5.53;;;2.40;;
25553;SDS011;13446;50.926;5.332;2022-08-04T05:29:29;4.93;;;2.13;;
25553;SDS011;13446;50.926;5.332;2022-08-04T05:31:58;9.00;;;2.40;;
25553;SDS011;13446;50.926;5.332;2022-08-04T05:34:29;8.15;;;2.30;;
25553;SDS011;13446;50.926;5.332;2022-08-04T05:36:58;6.97;;;2.70;;
25553;SDS011;13446;50.926;5.332;2022-08-04T05:39:27;6.35;;;2.60;;
25553;SDS011;13446;50.926;5.332;2022-08-04T05:42:00;9.18;;;2.28;;
25553;SDS011;13446;50.926;5.332;2022-08-04T05:44:28;10.88;;;2.25;;
25553;SDS011;13446;50.926;5.332;2022-08-04T05:46:56;5.78;;;2.50;;
25553;SDS011;13446;50.926;5.332;2022-08-04T05:49:22;7.97;;;2.65;;
25553;SDS011;13446;50.926;5.332;2022-08-04T05:51:51;9.00;;;2.53;;
25553;SDS011;13446;50.926;5.332;2022-08-04T05:54:19;8.65;;;2.60;;
25553;SDS011;13446;50.926;5.332;2022-08-04T05:56:47;11.20;;;2.45;;
25553;SDS011;13446;50.926;5.332;2022-08-04T05:59:14;5.20;;;2.60;;
25553;SDS011;13446;50.926;5.332;2022-08-04T06:01:40;6.38;;;2.30;;
25553;SDS011;13446;50.926;5.332;2022-08-04T06:04:09;6.63;;;2.58;;
25553;SDS011;13446;50.926;5.332;2022-08-04T06:06:36;6.65;;;2.65;;
25553;SDS011;13446;50.926;5.332;2022-08-04T06:09:04;9.40;;;2.40;;
25553;SDS011;13446;50.926;5.332;2022-08-04T06:11:30;5.93;;;2.45;;
25553;SDS011;13446;50.926;5.332;2022-08-04T06:14:00;9.50;;;2.72;;
25553;SDS011;13446;50.926;5.332;2022-08-04T06:16:32;10.65;;;2.60;;
25553;SDS011;13446;50.926;5.332;2022-08-04T06:19:03;8.90;;;2.50;;
25553;SDS011;13446;50.926;5.332;2022-08-04T06:21:31;11.48;;;2.40;;
25553;SDS011;13446;50.926;5.332;2022-08-04T06:23:59;6.00;;;2.60;;
25553;SDS011;13446;50.926;5.332;2022-08-04T06:26:28;9.57;;;2.90;;
25553;SDS011;13446;50.926;5.332;2022-08-04T06:28:58;11.95;;;2.78;;
25553;SDS011;13446;50.926;5.332;2022-08-04T06:31:27;6.83;;;2.07;;
25553;SDS011;13446;50.926;5.332;2022-08-04T06:34:13;9.73;;;2.60;;
25553;SDS011;13446;50.926;5.332;2022-08-04T06:36:40;8.02;;;2.13;;
25553;SDS011;13446;50.926;5.332;2022-08-04T06:39:07;5.30;;;2.60;;
25553;SDS011;13446;50.926;5.332;2022-08-04T06:41:34;11.57;;;2.47;;
25553;SDS011;13446;50.926;5.332;2022-08-04T06:44:02;7.25;;;2.45;;
25553;SDS011;13446;50.926;5.332;2022-08-04T06:46:33;9.40;;;2.50;;
25553;SDS011;13446;50.926;5.332;2022-08-04T06:49:01;8.85;;;2.40;;
25553;SDS011;13446;50.926;5.332;2022-08-04T06:51:28;7.38;;;2.05;;
25553;SDS011;13446;50.926;5.332;2022-08-04T06:53:55;10.65;;;2.30;;
25553;SDS011;13446;50.926;5.332;2022-08-04T06:56:21;9.40;;;2.45;;
25553;SDS011;13446;50.926;5.332;2022-08-04T06:58:49;8.00;;;2.50;;
25553;SDS011;13446;50.926;5.332;2022-08-04T07:01:19;8.27;;;2.28;;
25553;SDS011;13446;50.926;5.332;2022-08-04T07:03:46;10.38;;;2.67;;
25553;SDS011;13446;50.926;5.332;2022-08-04T07:06:13;12.05;;;2.42;;
25553;SDS011;13446;50.926;5.332;2022-08-04T07:08:39;9.70;;;2.70;;
25553;SDS011;13446;50.926;5.332;2022-08-04T07:11:06;8.57;;;2.53;;
25553;SDS011;13446;50.926;5.332;2022-08-04T07:13:33;7.70;;;3.20;;
25553;SDS011;13446;50.926;5.332;2022-08-04T07:16:00;9.85;;;2.70;;
25553;SDS011;13446;50.926;5.332;2022-08-04T07:18:26;15.23;;;2.83;;
25553;SDS011;13446;50.926;5.332;2022-08-04T07:20:55;15.93;;;3.00;;
25553;SDS011;13446;50.926;5.332;2022-08-04T07:23:22;7.13;;;3.00;;
25553;SDS011;13446;50.926;5.332;2022-08-04T07:25:49;9.25;;;2.90;;
25553;SDS011;13446;50.926;5.332;2022-08-04T07:28:21;12.02;;;3.13;;
25553;SDS011;13446;50.926;5.332;2022-08-04T07:30:48;17.10;;;3.40;;
25553;SDS011;13446;50.926;5.332;2022-08-04T07:33:15;11.55;;;3.67;;
25553;SDS011;13446;50.926;5.332;2022-08-04T07:35:41;8.63;;;3.58;;
25553;SDS011;13446;50.926;5.332;2022-08-04T07:38:08;11.02;;;3.50;;
25553;SDS011;13446;50.926;5.332;2022-08-04T07:40:37;9.10;;;3.83;;
25553;SDS011;13446;50.926;5.332;2022-08-04T07:43:03;12.57;;;4.43;;
25553;SDS011;13446;50.926;5.332;2022-08-04T07:45:29;7.82;;;3.78;;
25553;SDS011;13446;50.926;5.332;2022-08-04T07:47:55;8.48;;;4.70;;
25553;SDS011;13446;50.926;5.332;2022-08-04T07:50:21;15.05;;;5.40;;
25553;SDS011;13446;50.926;5.332;2022-08-04T07:52:47;10.60;;;4.90;;
25553;SDS011;13446;50.926;5.332;2022-08-04T07:55:13;13.77;;;4.78;;
25553;SDS011;13446;50.926;5.332;2022-08-04T07:57:40;9.88;;;5.00;;
25553;SDS011;13446;50.926;5.332;2022-08-04T08:00:07;11.63;;;4.97;;
25553;SDS011;13446;50.926;5.332;2022-08-04T08:02:39;14.40;;;5.30;;
25553;SDS011;13446;50.926;5.332;2022-08-04T08:05:09;10.35;;;4.85;;
25553;SDS011;13446;50.926;5.332;2022-08-04T08:07:36;10.02;;;5.72;;
25553;SDS011;13446;50.926;5.332;2022-08-04T08:10:02;15.45;;;6.10;;
25553;SDS011;13446;50.926;5.332;2022-08-04T08:12:28;10.20;;;5.20;;
25553;SDS011;13446;50.926;5.332;2022-08-04T08:14:56;17.95;;;6.45;;
25553;SDS011;13446;50.926;5.332;2022-08-04T08:17:23;17.77;;;5.82;;
25553;SDS011;13446;50.926;5.332;2022-08-04T08:19:49;14.23;;;5.88;;
25553;SDS011;13446;50.926;5.332;2022-08-04T08:22:15;14.60;;;6.80;;
25553;SDS011;13446;50.926;5.332;2022-08-04T08:24:41;15.00;;;6.25;;
25553;SDS011;13446;50.926;5.332;2022-08-04T08:27:07;13.63;;;6.10;;
25553;SDS011;13446;50.926;5.332;2022-08-04T08:29:33;17.83;;;6.53;;
25553;SDS011;13446;50.926;5.332;2022-08-04T08:31:59;19.98;;;7.07;;
25553;SDS011;13446;50.926;5.332;2022-08-04T08:34:26;13.70;;;6.75;;
25553;SDS011;13446;50.926;5.332;2022-08-04T08:36:58;20.15;;;5.75;;
25553;SDS011;13446;50.926;5.332;2022-08-04T08:42:31;14.88;;;6.32;;
25553;SDS011;13446;50.926;5.332;2022-08-04T08:51:08;16.02;;;5.45;;
25553;SDS011;13446;50.926;5.332;2022-08-04T08:53:51;15.13;;;5.10;;
25553;SDS011;13446;50.926;5.332;2022-08-04T08:56:30;11.95;;;4.30;;
25553;SDS011;13446;50.926;5.332;2022-08-04T09:13:12;9.68;;;3.38;;
25553;SDS011;13446;50.926;5.332;2022-08-04T09:18:27;14.43;;;3.40;;
25553;SDS011;13446;50.926;5.332;2022-08-04T09:32:10;12.52;;;2.78;;
25553;SDS011;13446;50.926;5.332;2022-08-04T09:35:05;8.90;;;2.60;;
25553;SDS011;13446;50.926;5.332;2022-08-04T09:51:47;17.40;;;2.42;;
25553;SDS011;13446;50.926;5.332;2022-08-04T09:56:59;12.00;;;2.40;;
25553;SDS011;13446;50.926;5.332;2022-08-04T10:02:16;8.65;;;2.50;;
25553;SDS011;13446;50.926;5.332;2022-08-04T10:04:45;6.15;;;2.17;;
25553;SDS011;13446;50.926;5.332;2022-08-04T10:07:33;10.48;;;2.22;;
25553;SDS011;13446;50.926;5.332;2022-08-04T10:10:19;9.60;;;2.28;;
25553;SDS011;13446;50.926;5.332;2022-08-04T10:15:45;11.85;;;2.22;;
25553;SDS011;13446;50.926;5.332;2022-08-04T10:18:24;11.30;;;1.98;;
25553;SDS011;13446;50.926;5.332;2022-08-04T10:29:31;7.47;;;2.35;;
25553;SDS011;13446;50.926;5.332;2022-08-04T10:34:43;14.18;;;2.25;;
25553;SDS011;13446;50.926;5.332;2022-08-04T10:37:57;15.02;;;2.50;;
25553;SDS011;13446;50.926;5.332;2022-08-04T10:40:41;8.43;;;2.10;;
25553;SDS011;13446;50.926;5.332;2022-08-04T10:46:06;13.63;;;2.30;;
25553;SDS011;13446;50.926;5.332;2022-08-04T10:48:59;11.00;;;2.38;;
25553;SDS011;13446;50.926;5.332;2022-08-04T10:51:49;7.90;;;2.13;;
25553;SDS011;13446;50.926;5.332;2022-08-04T10:57:13;12.88;;;1.95;;
25553;SDS011;13446;50.926;5.332;2022-08-04T11:05:00;6.20;;;1.88;;
25553;SDS011;13446;50.926;5.332;2022-08-04T11:07:49;11.15;;;2.50;;
25553;SDS011;13446;50.926;5.332;2022-08-04T11:10:19;9.95;;;2.20;;
25553;SDS011;13446;50.926;5.332;2022-08-04T11:12:48;6.68;;;2.13;;
25553;SDS011;13446;50.926;5.332;2022-08-04T11:15:21;11.48;;;2.47;;
25553;SDS011;13446;50.926;5.332;2022-08-04T11:17:58;14.57;;;1.85;;
25553;SDS011;13446;50.926;5.332;2022-08-04T11:23:30;13.77;;;2.30;;
25553;SDS011;13446;50.926;5.332;2022-08-04T11:31:39;10.02;;;2.08;;
25553;SDS011;13446;50.926;5.332;2022-08-04T11:34:26;11.57;;;2.40;;
25553;SDS011;13446;50.926;5.332;2022-08-04T11:37:06;9.32;;;2.10;;
25553;SDS011;13446;50.926;5.332;2022-08-04T11:39:44;13.05;;;2.75;;
25553;SDS011;13446;50.926;5.332;2022-08-04T11:44:50;13.07;;;2.88;;
25553;SDS011;13446;50.926;5.332;2022-08-04T11:47:21;10.20;;;2.33;;
25553;SDS011;13446;50.926;5.332;2022-08-04T11:52:50;16.67;;;2.55;;
25553;SDS011;13446;50.926;5.332;2022-08-04T11:55:19;18.20;;;3.47;;
25553;SDS011;13446;50.926;5.332;2022-08-04T11:57:47;25.50;;;3.42;;
25553;SDS011;13446;50.926;5.332;2022-08-04T12:00:14;10.43;;;2.65;;
25553;SDS011;13446;50.926;5.332;2022-08-04T12:08:49;14.88;;;2.85;;
25553;SDS011;13446;50.926;5.332;2022-08-04T12:11:36;16.88;;;3.17;;
25553;SDS011;13446;50.926;5.332;2022-08-04T12:16:57;26.40;;;3.40;;
25553;SDS011;13446;50.926;5.332;2022-08-04T12:22:00;17.25;;;2.85;;
25553;SDS011;13446;50.926;5.332;2022-08-04T12:27:40;14.10;;;2.97;;
25553;SDS011;13446;50.926;5.332;2022-08-04T12:30:18;12.93;;;3.13;;
25553;SDS011;13446;50.926;5.332;2022-08-04T12:35:19;12.85;;;3.35;;
25553;SDS011;13446;50.926;5.332;2022-08-04T12:37:53;13.07;;;3.53;;
25553;SDS011;13446;50.926;5.332;2022-08-04T12:40:28;16.42;;;3.08;;
25553;SDS011;13446;50.926;5.332;2022-08-04T12:45:50;11.45;;;3.53;;
25553;SDS011;13446;50.926;5.332;2022-08-04T12:48:19;14.48;;;4.13;;
25553;SDS011;13446;50.926;5.332;2022-08-04T12:50:49;20.70;;;3.53;;
25553;SDS011;13446;50.926;5.332;2022-08-04T12:53:18;15.18;;;3.47;;
25553;SDS011;13446;50.926;5.332;2022-08-04T12:55:47;14.18;;;3.53;;
25553;SDS011;13446;50.926;5.332;2022-08-04T12:58:16;19.50;;;3.67;;
25553;SDS011;13446;50.926;5.332;2022-08-04T13:00:46;20.35;;;3.83;;
25553;SDS011;13446;50.926;5.332;2022-08-04T13:03:20;14.52;;;3.60;;
25553;SDS011;13446;50.926;5.332;2022-08-04T13:05:48;14.85;;;3.22;;
25553;SDS011;13446;50.926;5.332;2022-08-04T13:08:22;17.27;;;3.58;;
25553;SDS011;13446;50.926;5.332;2022-08-04T13:10:49;15.18;;;4.25;;
25553;SDS011;13446;50.926;5.332;2022-08-04T13:13:18;16.77;;;3.42;;
25553;SDS011;13446;50.926;5.332;2022-08-04T13:20:52;18.42;;;3.67;;
25553;SDS011;13446;50.926;5.332;2022-08-04T13:23:18;16.55;;;3.97;;
25553;SDS011;13446;50.926;5.332;2022-08-04T13:25:45;15.63;;;3.90;;
25553;SDS011;13446;50.926;5.332;2022-08-04T13:28:25;16.73;;;4.03;;
25553;SDS011;13446;50.926;5.332;2022-08-04T13:30:53;12.85;;;3.58;;
25553;SDS011;13446;50.926;5.332;2022-08-04T13:33:22;20.73;;;4.03;;
25553;SDS011;13446;50.926;5.332;2022-08-04T13:36:00;13.32;;;3.42;;
25553;SDS011;13446;50.926;5.332;2022-08-04T13:38:27;14.73;;;3.90;;
25553;SDS011;13446;50.926;5.332;2022-08-04T13:40:55;14.43;;;4.03;;
25553;SDS011;13446;50.926;5.332;2022-08-04T13:43:31;11.40;;;4.03;;
25553;SDS011;13446;50.926;5.332;2022-08-04T13:46:05;12.98;;;4.38;;
25553;SDS011;13446;50.926;5.332;2022-08-04T13:48:33;12.93;;;3.47;;
25553;SDS011;13446;50.926;5.332;2022-08-04T13:51:04;11.65;;;4.20;;
25553;SDS011;13446;50.926;5.332;2022-08-04T13:53:31;13.30;;;4.40;;
25553;SDS011;13446;50.926;5.332;2022-08-04T13:55:59;15.52;;;4.13;;
25553;SDS011;13446;50.926;5.332;2022-08-04T13:58:29;14.48;;;3.70;;
25553;SDS011;13446;50.926;5.332;2022-08-04T14:01:06;14.30;;;5.63;;
25553;SDS011;13446;50.926;5.332;2022-08-04T14:03:39;13.27;;;4.65;;
25553;SDS011;13446;50.926;5.332;2022-08-04T14:08:55;28.02;;;4.35;;
25553;SDS011;13446;50.926;5.332;2022-08-04T14:14:27;12.50;;;4.05;;
25553;SDS011;13446;50.926;5.332;2022-08-04T14:19:24;11.77;;;3.20;;
25553;SDS011;13446;50.926;5.332;2022-08-04T14:21:50;21.60;;;5.47;;
25553;SDS011;13446;50.926;5.332;2022-08-04T14:24:23;14.40;;;3.83;;
25553;SDS011;13446;50.926;5.332;2022-08-04T14:26:50;14.10;;;3.70;;
25553;SDS011;13446;50.926;5.332;2022-08-04T14:29:16;11.65;;;4.07;;
25553;SDS011;13446;50.926;5.332;2022-08-04T14:31:46;17.42;;;4.43;;
25553;SDS011;13446;50.926;5.332;2022-08-04T14:34:31;14.30;;;3.33;;
25553;SDS011;13446;50.926;5.332;2022-08-04T14:37:09;15.40;;;3.97;;
25553;SDS011;13446;50.926;5.332;2022-08-04T14:39:41;10.13;;;3.35;;
25553;SDS011;13446;50.926;5.332;2022-08-04T14:42:08;13.60;;;4.18;;
25553;SDS011;13446;50.926;5.332;2022-08-04T14:44:53;12.13;;;3.80;;
25553;SDS011;13446;50.926;5.332;2022-08-04T14:50:10;12.13;;;2.97;;
25553;SDS011;13446;50.926;5.332;2022-08-04T14:52:37;18.35;;;3.58;;
25553;SDS011;13446;50.926;5.332;2022-08-04T14:55:17;8.80;;;3.42;;
25553;SDS011;13446;50.926;5.332;2022-08-04T14:57:46;7.82;;;2.85;;
25553;SDS011;13446;50.926;5.332;2022-08-04T15:00:22;23.92;;;3.85;;
25553;SDS011;13446;50.926;5.332;2022-08-04T15:02:55;10.82;;;3.28;;
25553;SDS011;13446;50.926;5.332;2022-08-04T15:05:25;18.33;;;3.22;;
25553;SDS011;13446;50.926;5.332;2022-08-04T15:07:53;15.60;;;3.17;;
25553;SDS011;13446;50.926;5.332;2022-08-04T15:10:20;13.25;;;3.60;;
25553;SDS011;13446;50.926;5.332;2022-08-04T15:12:46;15.63;;;3.38;;
25553;SDS011;13446;50.926;5.332;2022-08-04T15:15:12;14.10;;;3.08;;
25553;SDS011;13446;50.926;5.332;2022-08-04T15:17:38;6.78;;;2.47;;
25553;SDS011;13446;50.926;5.332;2022-08-04T15:20:06;10.35;;;2.70;;
25553;SDS011;13446;50.926;5.332;2022-08-04T15:22:32;7.78;;;2.70;;
25553;SDS011;13446;50.926;5.332;2022-08-04T15:24:59;14.55;;;2.90;;
25553;SDS011;13446;50.926;5.332;2022-08-04T15:27:25;7.68;;;2.97;;
25553;SDS011;13446;50.926;5.332;2022-08-04T15:29:54;9.88;;;2.65;;
25553;SDS011;13446;50.926;5.332;2022-08-04T15:32:24;34.30;;;4.18;;
25553;SDS011;13446;50.926;5.332;2022-08-04T15:34:51;9.68;;;2.70;;
25553;SDS011;13446;50.926;5.332;2022-08-04T15:46:03;16.55;;;3.45;;
25553;SDS011;13446;50.926;5.332;2022-08-04T15:48:29;12.30;;;2.55;;
25553;SDS011;13446;50.926;5.332;2022-08-04T15:53:22;14.63;;;2.85;;
25553;SDS011;13446;50.926;5.332;2022-08-04T15:55:48;7.88;;;2.95;;
25553;SDS011;13446;50.926;5.332;2022-08-04T15:58:16;9.68;;;2.67;;
25553;SDS011;13446;50.926;5.332;2022-08-04T16:05:58;10.80;;;2.80;;
25553;SDS011;13446;50.926;5.332;2022-08-04T16:08:56;8.07;;;3.58;;
25553;SDS011;13446;50.926;5.332;2022-08-04T16:19:09;13.18;;;3.30;;
25553;SDS011;13446;50.926;5.332;2022-08-04T16:21:50;10.18;;;3.38;;
25553;SDS011;13446;50.926;5.332;2022-08-04T16:24:34;7.03;;;3.00;;
25553;SDS011;13446;50.926;5.332;2022-08-04T16:27:01;9.10;;;3.03;;
25553;SDS011;13446;50.926;5.332;2022-08-04T16:29:36;11.43;;;2.90;;
25553;SDS011;13446;50.926;5.332;2022-08-04T16:34:40;10.30;;;3.10;;
25553;SDS011;13446;50.926;5.332;2022-08-04T16:37:10;7.38;;;3.20;;
25553;SDS011;13446;50.926;5.332;2022-08-04T16:39:37;12.55;;;3.80;;
25553;SDS011;13446;50.926;5.332;2022-08-04T16:42:27;8.40;;;2.75;;
25553;SDS011;13446;50.926;5.332;2022-08-04T16:45:00;11.85;;;3.00;;
25553;SDS011;13446;50.926;5.332;2022-08-04T16:50:44;5.65;;;2.90;;
25553;SDS011;13446;50.926;5.332;2022-08-04T16:53:34;10.25;;;2.85;;
25553;SDS011;13446;50.926;5.332;2022-08-04T16:56:07;11.93;;;3.20;;
25553;SDS011;13446;50.926;5.332;2022-08-04T16:58:35;6.85;;;2.53;;
25553;SDS011;13446;50.926;5.332;2022-08-04T17:03:36;11.18;;;3.28;;
25553;SDS011;13446;50.926;5.332;2022-08-04T17:06:03;5.40;;;3.22;;
25553;SDS011;13446;50.926;5.332;2022-08-04T17:08:33;5.93;;;2.58;;
25553;SDS011;13446;50.926;5.332;2022-08-04T17:10:59;6.20;;;2.85;;
25553;SDS011;13446;50.926;5.332;2022-08-04T17:13:29;8.85;;;3.55;;
25553;SDS011;13446;50.926;5.332;2022-08-04T17:16:05;8.88;;;2.67;;
25553;SDS011;13446;50.926;5.332;2022-08-04T17:18:36;8.90;;;3.05;;
25553;SDS011;13446;50.926;5.332;2022-08-04T17:21:06;12.52;;;2.63;;
25553;SDS011;13446;50.926;5.332;2022-08-04T17:23:37;10.30;;;2.70;;
25553;SDS011;13446;50.926;5.332;2022-08-04T17:28:34;6.97;;;2.63;;
25553;SDS011;13446;50.926;5.332;2022-08-04T17:31:01;8.50;;;2.80;;
25553;SDS011;13446;50.926;5.332;2022-08-04T17:33:30;10.48;;;2.58;;
25553;SDS011;13446;50.926;5.332;2022-08-04T17:35:57;11.15;;;3.13;;
25553;SDS011;13446;50.926;5.332;2022-08-04T17:41:13;3.92;;;2.63;;
25553;SDS011;13446;50.926;5.332;2022-08-04T17:43:44;5.75;;;2.53;;
25553;SDS011;13446;50.926;5.332;2022-08-04T17:48:54;5.53;;;2.72;;
25553;SDS011;13446;50.926;5.332;2022-08-04T17:51:51;6.15;;;2.80;;
25553;SDS011;13446;50.926;5.332;2022-08-04T17:54:27;7.22;;;2.60;;
25553;SDS011;13446;50.926;5.332;2022-08-04T17:56:57;6.55;;;2.83;;
25553;SDS011;13446;50.926;5.332;2022-08-04T17:59:28;8.93;;;3.20;;
25553;SDS011;13446;50.926;5.332;2022-08-04T18:02:06;5.53;;;2.67;;
25553;SDS011;13446;50.926;5.332;2022-08-04T18:07:11;9.45;;;2.72;;
25553;SDS011;13446;50.926;5.332;2022-08-04T18:12:07;11.80;;;3.47;;
25553;SDS011;13446;50.926;5.332;2022-08-04T18:14:37;10.98;;;3.28;;
25553;SDS011;13446;50.926;5.332;2022-08-04T18:17:03;10.20;;;2.97;;
25553;SDS011;13446;50.926;5.332;2022-08-04T18:19:29;10.10;;;3.05;;
25553;SDS011;13446;50.926;5.332;2022-08-04T18:21:55;11.10;;;2.90;;
25553;SDS011;13446;50.926;5.332;2022-08-04T18:24:21;7.35;;;3.20;;
25553;SDS011;13446;50.926;5.332;2022-08-04T18:26:47;9.55;;;3.13;;
25553;SDS011;13446;50.926;5.332;2022-08-04T18:29:13;10.20;;;3.30;;
25553;SDS011;13446;50.926;5.332;2022-08-04T18:31:38;10.35;;;4.43;;
25553;SDS011;13446;50.926;5.332;2022-08-04T18:34:05;11.40;;;4.05;;
25553;SDS011;13446;50.926;5.332;2022-08-04T18:36:31;13.93;;;3.20;;
25553;SDS011;13446;50.926;5.332;2022-08-04T18:38:59;5.57;;;3.20;;
25553;SDS011;13446;50.926;5.332;2022-08-04T18:41:26;10.27;;;2.85;;
25553;SDS011;13446;50.926;5.332;2022-08-04T18:43:55;9.30;;;3.22;;
25553;SDS011;13446;50.926;5.332;2022-08-04T18:46:21;9.38;;;3.55;;
25553;SDS011;13446;50.926;5.332;2022-08-04T18:48:50;12.15;;;3.70;;
25553;SDS011;13446;50.926;5.332;2022-08-04T18:51:15;10.82;;;3.25;;
25553;SDS011;13446;50.926;5.332;2022-08-04T18:53:43;6.15;;;2.95;;
25553;SDS011;13446;50.926;5.332;2022-08-04T18:56:10;12.20;;;3.20;;
25553;SDS011;13446;50.926;5.332;2022-08-04T18:58:37;5.75;;;3.30;;
25553;SDS011;13446;50.926;5.332;2022-08-04T19:01:03;7.60;;;3.28;;
25553;SDS011;13446;50.926;5.332;2022-08-04T19:03:31;9.18;;;3.17;;
25553;SDS011;13446;50.926;5.332;2022-08-04T19:05:57;8.00;;;3.30;;
25553;SDS011;13446;50.926;5.332;2022-08-04T19:08:23;8.38;;;3.20;;
25553;SDS011;13446;50.926;5.332;2022-08-04T19:10:50;9.38;;;3.00;;
25553;SDS011;13446;50.926;5.332;2022-08-04T19:13:16;9.25;;;3.03;;
25553;SDS011;13446;50.926;5.332;2022-08-04T19:15:42;8.40;;;3.00;;
25553;SDS011;13446;50.926;5.332;2022-08-04T19:18:07;8.20;;;3.08;;
25553;SDS011;13446;50.926;5.332;2022-08-04T19:20:33;8.95;;;2.92;;
25553;SDS011;13446;50.926;5.332;2022-08-04T19:22:59;7.55;;;2.50;;
25553;SDS011;13446;50.926;5.332;2022-08-04T19:25:25;10.30;;;2.85;;
25553;SDS011;13446;50.926;5.332;2022-08-04T19:27:50;6.18;;;2.50;;
25553;SDS011;13446;50.926;5.332;2022-08-04T19:30:16;5.13;;;2.35;;
25553;SDS011;13446;50.926;5.332;2022-08-04T19:32:42;4.95;;;2.20;;
25553;SDS011;13446;50.926;5.332;2022-08-04T19:35:07;6.72;;;2.22;;
25553;SDS011;13446;50.926;5.332;2022-08-04T19:37:33;4.78;;;2.17;;
25553;SDS011;13446;50.926;5.332;2022-08-04T19:39:59;7.57;;;2.60;;
25553;SDS011;13446;50.926;5.332;2022-08-04T19:42:24;9.30;;;2.30;;
25553;SDS011;13446;50.926;5.332;2022-08-04T19:44:50;5.68;;;2.20;;
25553;SDS011;13446;50.926;5.332;2022-08-04T19:47:16;6.53;;;2.33;;
25553;SDS011;13446;50.926;5.332;2022-08-04T19:49:41;4.85;;;2.10;;
25553;SDS011;13446;50.926;5.332;2022-08-04T19:52:08;8.55;;;2.38;;
25553;SDS011;13446;50.926;5.332;2022-08-04T19:54:34;4.47;;;2.10;;
25553;SDS011;13446;50.926;5.332;2022-08-04T19:57:00;5.15;;;2.42;;
25553;SDS011;13446;50.926;5.332;2022-08-04T19:59:25;9.70;;;2.53;;
25553;SDS011;13446;50.926;5.332;2022-08-04T20:01:51;7.05;;;2.28;;
25553;SDS011;13446;50.926;5.332;2022-08-04T20:04:17;12.45;;;2.70;;
25553;SDS011;13446;50.926;5.332;2022-08-04T20:06:42;7.07;;;2.42;;
25553;SDS011;13446;50.926;5.332;2022-08-04T20:09:08;8.02;;;2.53;;
25553;SDS011;13446;50.926;5.332;2022-08-04T20:11:35;13.75;;;3.00;;
25553;SDS011;13446;50.926;5.332;2022-08-04T20:14:00;5.90;;;2.38;;
25553;SDS011;13446;50.926;5.332;2022-08-04T20:16:27;15.52;;;3.10;;
25553;SDS011;13446;50.926;5.332;2022-08-04T20:18:53;10.30;;;3.20;;
25553;SDS011;13446;50.926;5.332;2022-08-04T20:21:19;14.18;;;3.97;;
25553;SDS011;13446;50.926;5.332;2022-08-04T20:23:45;12.77;;;3.42;;
25553;SDS011;13446;50.926;5.332;2022-08-04T20:26:11;6.85;;;3.08;;